createdAt,value
2022-10-13T00:00:59.820Z,9.80
2022-10-13T00:02:03.779Z,9.45
2022-10-13T00:03:08.234Z,6.07
2022-10-13T00:04:12.948Z,7.53
2022-10-13T00:05:16.967Z,9.70
2022-10-13T00:06:24.768Z,9.88
2022-10-13T00:07:28.388Z,9.10
2022-10-13T00:08:33.063Z,9.60
2022-10-13T00:09:36.845Z,10.15
2022-10-13T00:10:41.789Z,7.72
2022-10-13T00:11:45.586Z,11.80
2022-10-13T00:12:49.865Z,14.82
2022-10-13T00:14:00.991Z,14.48
2022-10-13T00:15:08.005Z,8.88
2022-10-13T00:16:15.112Z,7.95
2022-10-13T00:17:19.192Z,6.95
2022-10-13T00:18:22.985Z,12.65
2022-10-13T00:19:27.916Z,8.07
2022-10-13T00:20:31.896Z,9.00
2022-10-13T00:21:35.968Z,8.98
2022-10-13T00:22:39.913Z,14.80
2022-10-13T00:23:44.309Z,8.85
2022-10-13T00:24:52.880Z,6.43
2022-10-13T00:25:56.722Z,16.08
2022-10-13T00:27:00.477Z,8.10
2022-10-13T00:28:04.009Z,18.55
2022-10-13T00:29:07.755Z,15.82
2022-10-13T00:30:11.804Z,9.80
2022-10-13T00:31:25.975Z,8.88
2022-10-13T00:32:30.288Z,4.70
2022-10-13T00:33:33.931Z,12.23
2022-10-13T00:34:38.857Z,9.73
2022-10-13T00:35:48.260Z,6.40
2022-10-13T00:36:52.408Z,13.55
2022-10-13T00:37:56.278Z,7.55
2022-10-13T00:39:00.008Z,9.98
2022-10-13T00:40:04.486Z,6.93
2022-10-13T00:41:08.639Z,5.53
2022-10-13T00:42:17.966Z,5.03
2022-10-13T00:43:54.102Z,4.20
2022-10-13T00:45:29.558Z,6.63
2022-10-13T00:46:37.076Z,5.07
2022-10-13T00:47:55.645Z,8.30
2022-10-13T00:49:14.698Z,11.98
2022-10-13T00:50:24.177Z,8.73
2022-10-13T00:51:33.948Z,4.93
2022-10-13T00:52:41.663Z,7.10
2022-10-13T00:53:48.309Z,7.18
2022-10-13T00:54:52.476Z,5.90
2022-10-13T00:55:56.824Z,8.93
2022-10-13T00:57:03.008Z,17.92
2022-10-13T00:58:12.607Z,6.97
2022-10-13T00:59:27.690Z,6.43
2022-10-13T01:00:34.407Z,7.57
2022-10-13T01:01:38.505Z,4.75
2022-10-13T01:02:42.482Z,7.03
2022-10-13T01:03:46.096Z,7.63
2022-10-13T01:04:51.979Z,13.57
2022-10-13T01:06:01.605Z,10.43
2022-10-13T01:07:06.738Z,9.07
2022-10-13T01:08:12.162Z,10.25
2022-10-13T01:09:16.700Z,8.20
2022-10-13T01:10:50.033Z,9.43
2022-10-13T01:12:12.041Z,9.43
2022-10-13T01:13:40.279Z,6.30
2022-10-13T01:14:54.065Z,7.45
2022-10-13T01:16:13.407Z,11.70
2022-10-13T01:17:37.243Z,5.40
2022-10-13T01:18:55.146Z,6.82
2022-10-13T01:20:37.563Z,6.15
2022-10-13T01:22:19.287Z,7.97
2022-10-13T01:23:43.475Z,8.38
2022-10-13T01:25:13.408Z,13.15
2022-10-13T01:26:38.629Z,6.55
2022-10-13T01:28:22.410Z,9.73
2022-10-13T01:29:52.672Z,12.98
2022-10-13T01:31:08.400Z,4.43
2022-10-13T01:32:32.739Z,10.98
2022-10-13T01:33:54.652Z,8.57
2022-10-13T01:35:36.009Z,11.23
2022-10-13T01:36:51.600Z,8.60
2022-10-13T01:38:13.775Z,13.32
2022-10-13T01:39:38.121Z,15.45
2022-10-13T01:41:02.788Z,12.45
2022-10-13T01:42:25.021Z,8.25
2022-10-13T01:44:01.166Z,8.63
2022-10-13T01:45:05.459Z,7.20
2022-10-13T01:46:20.803Z,6.57
2022-10-13T01:47:27.388Z,11.02
2022-10-13T01:48:34.663Z,8.65
2022-10-13T01:49:40.695Z,9.98
2022-10-13T01:50:45.845Z,11.68
2022-10-13T01:51:50.655Z,10.75
2022-10-13T01:52:56.763Z,7.78
2022-10-13T01:54:00.640Z,7.22
2022-10-13T01:55:11.848Z,10.07
2022-10-13T01:56:16.925Z,8.05
2022-10-13T01:57:56.517Z,7.00
2022-10-13T01:59:09.258Z,7.22
2022-10-13T02:00:17.660Z,18.35
2022-10-13T02:04:04.984Z,10.00
2022-10-13T02:05:42.546Z,8.68
2022-10-13T02:07:14.617Z,7.60
2022-10-13T02:08:51.598Z,9.88
2022-10-13T02:10:10.751Z,13.23
2022-10-13T02:11:19.676Z,12.00
2022-10-13T02:12:41.974Z,12.13
2022-10-13T02:14:26.617Z,5.53
2022-10-13T02:15:55.951Z,8.38
2022-10-13T02:17:05.222Z,7.65
2022-10-13T02:18:12.314Z,7.35
2022-10-13T02:19:18.458Z,9.48
2022-10-13T02:20:23.414Z,9.32
2022-10-13T02:21:27.623Z,9.23
2022-10-13T02:22:40.853Z,12.15
2022-10-13T02:23:46.087Z,14.68
2022-10-13T02:24:49.633Z,10.20
2022-10-13T02:25:55.504Z,6.53
2022-10-13T02:26:59.268Z,9.48
2022-10-13T02:28:03.570Z,8.30
2022-10-13T02:29:13.453Z,13.18
2022-10-13T02:30:25.095Z,8.63
2022-10-13T02:31:28.929Z,8.93
2022-10-13T02:32:33.032Z,6.45
2022-10-13T02:33:36.785Z,8.45
2022-10-13T02:34:40.571Z,10.50
2022-10-13T02:35:44.343Z,7.63
2022-10-13T02:36:48.262Z,9.77
2022-10-13T02:37:52.537Z,16.17
2022-10-13T02:38:56.786Z,5.38
2022-10-13T02:40:00.378Z,10.10
2022-10-13T02:41:04.111Z,8.55
2022-10-13T02:42:08.288Z,11.57
2022-10-13T02:43:12.341Z,5.75
2022-10-13T02:44:16.110Z,7.40
2022-10-13T02:45:20.083Z,7.00
2022-10-13T02:46:23.646Z,13.43
2022-10-13T02:47:27.095Z,8.98
2022-10-13T02:48:31.189Z,11.75
2022-10-13T02:49:34.666Z,5.70
2022-10-13T02:50:38.236Z,10.52
2022-10-13T02:51:41.969Z,7.93
2022-10-13T02:52:45.864Z,13.10
2022-10-13T02:53:49.557Z,9.43
2022-10-13T02:54:53.248Z,6.38
2022-10-13T02:55:56.942Z,5.65
2022-10-13T02:57:00.410Z,13.70
2022-10-13T02:58:04.494Z,11.50
2022-10-13T02:59:08.165Z,6.68
2022-10-13T03:00:12.914Z,7.93
2022-10-13T03:01:17.677Z,6.68
2022-10-13T03:02:21.591Z,11.60
2022-10-13T03:03:25.686Z,8.40
2022-10-13T03:04:30.250Z,12.18
2022-10-13T03:05:34.871Z,9.60
2022-10-13T03:06:38.578Z,12.07
2022-10-13T03:07:42.101Z,10.27
2022-10-13T03:08:45.819Z,6.95
2022-10-13T03:09:50.076Z,12.10
2022-10-13T03:10:54.265Z,14.85
2022-10-13T03:11:57.854Z,6.95
2022-10-13T03:13:01.357Z,6.88
2022-10-13T03:14:07.250Z,15.25
2022-10-13T03:15:11.196Z,11.68
2022-10-13T03:16:15.176Z,12.40
2022-10-13T03:17:18.834Z,7.72
2022-10-13T03:18:22.576Z,16.08
2022-10-13T03:19:26.193Z,8.43
2022-10-13T03:20:29.889Z,12.82
2022-10-13T03:21:33.879Z,11.43
2022-10-13T03:22:37.747Z,11.60
2022-10-13T03:23:41.350Z,10.32
2022-10-13T03:24:44.827Z,10.23
2022-10-13T03:25:48.823Z,9.02
2022-10-13T03:26:53.173Z,11.55
2022-10-13T03:27:56.683Z,9.40
2022-10-13T03:29:00.251Z,6.60
2022-10-13T03:30:05.060Z,9.20
2022-10-13T03:31:13.163Z,13.27
2022-10-13T03:32:17.493Z,9.25
2022-10-13T03:33:21.247Z,6.70
2022-10-13T03:34:25.167Z,13.82
2022-10-13T03:35:29.105Z,12.50
2022-10-13T03:36:33.152Z,10.13
2022-10-13T03:37:36.734Z,12.30
2022-10-13T03:38:41.065Z,10.80
2022-10-13T03:39:44.906Z,13.93
2022-10-13T03:40:48.352Z,9.55
2022-10-13T03:41:52.335Z,8.75
2022-10-13T03:42:56.947Z,16.45
2022-10-13T03:44:00.446Z,7.88
2022-10-13T03:45:06.386Z,8.70
2022-10-13T03:46:17.506Z,16.40
2022-10-13T03:47:21.423Z,13.55
2022-10-13T03:48:26.279Z,14.48
2022-10-13T03:49:29.868Z,16.25
2022-10-13T03:50:33.551Z,13.75
2022-10-13T03:51:37.155Z,12.68
2022-10-13T03:52:40.876Z,14.77
2022-10-13T03:53:46.033Z,10.52
2022-10-13T03:54:49.948Z,9.75
2022-10-13T03:55:56.706Z,14.32
2022-10-13T03:57:00.313Z,16.52
2022-10-13T03:58:04.103Z,13.68
2022-10-13T03:59:08.590Z,12.68
2022-10-13T04:00:13.614Z,13.65
2022-10-13T04:01:17.269Z,10.70
2022-10-13T04:02:21.066Z,12.90
2022-10-13T04:03:25.068Z,10.20
2022-10-13T04:04:28.623Z,20.08
2022-10-13T04:05:35.118Z,11.23
2022-10-13T04:06:39.841Z,9.52
2022-10-13T04:07:43.539Z,15.77
2022-10-13T04:08:47.990Z,10.65
2022-10-13T04:09:51.440Z,10.82
2022-10-13T04:11:04.452Z,15.25
2022-10-13T04:12:08.805Z,14.75
2022-10-13T04:13:12.854Z,13.98
2022-10-13T04:14:16.558Z,11.85
2022-10-13T04:15:20.376Z,12.07
2022-10-13T04:16:28.855Z,14.80
2022-10-13T04:17:33.352Z,9.43
2022-10-13T04:18:38.168Z,10.05
2022-10-13T04:19:48.010Z,11.80
2022-10-13T04:20:51.483Z,14.50
2022-10-13T04:21:55.127Z,13.52
2022-10-13T04:22:59.600Z,10.52
2022-10-13T04:24:04.511Z,13.15
2022-10-13T04:25:09.267Z,14.40
2022-10-13T04:26:20.620Z,7.28
2022-10-13T04:27:24.134Z,12.68
2022-10-13T04:28:27.806Z,8.65
2022-10-13T04:29:34.676Z,10.68
2022-10-13T04:30:38.312Z,13.65
2022-10-13T04:31:45.507Z,7.97
2022-10-13T04:32:49.127Z,15.45
2022-10-13T04:33:53.592Z,16.45
2022-10-13T04:34:57.718Z,11.23
2022-10-13T04:36:09.099Z,13.82
2022-10-13T04:37:12.987Z,17.30
2022-10-13T04:38:16.523Z,9.35
2022-10-13T04:39:20.611Z,13.55
2022-10-13T04:40:25.302Z,17.42
2022-10-13T04:41:29.203Z,11.85
2022-10-13T04:42:32.663Z,14.75
2022-10-13T04:43:37.035Z,10.68
2022-10-13T04:44:41.246Z,11.35
2022-10-13T04:45:44.834Z,21.50
2022-10-13T04:46:48.618Z,11.15
2022-10-13T04:47:52.523Z,11.13
2022-10-13T04:48:57.201Z,13.63
2022-10-13T04:50:00.830Z,9.95
2022-10-13T04:51:09.241Z,15.73
2022-10-13T04:52:13.218Z,9.07
2022-10-13T04:53:19.201Z,10.93
2022-10-13T04:54:22.973Z,10.52
2022-10-13T04:55:27.192Z,19.67
2022-10-13T04:56:31.484Z,9.93
2022-10-13T04:57:35.396Z,12.13
2022-10-13T04:58:40.810Z,11.45
2022-10-13T04:59:44.679Z,12.68
2022-10-13T05:00:49.007Z,10.77
2022-10-13T05:01:52.560Z,8.63
2022-10-13T05:02:56.644Z,10.30
2022-10-13T05:04:03.764Z,15.77
2022-10-13T05:05:08.706Z,13.95
2022-10-13T05:06:23.152Z,10.57
2022-10-13T05:07:27.152Z,18.00
2022-10-13T05:08:33.086Z,7.72
2022-10-13T05:09:36.888Z,11.88
2022-10-13T05:10:40.667Z,11.73
2022-10-13T05:11:44.573Z,14.43
2022-10-13T05:12:48.589Z,11.52
2022-10-13T05:13:53.050Z,11.35
2022-10-13T05:14:57.604Z,8.30
2022-10-13T05:16:09.994Z,11.93
2022-10-13T05:17:13.706Z,8.38
2022-10-13T05:18:17.604Z,9.27
2022-10-13T05:19:21.843Z,7.32
2022-10-13T05:20:26.070Z,11.07
2022-10-13T05:21:30.483Z,8.13
2022-10-13T05:22:33.972Z,8.65
2022-10-13T05:23:39.081Z,8.98
2022-10-13T05:24:44.889Z,7.45
2022-10-13T05:25:48.337Z,8.77
2022-10-13T05:26:51.763Z,8.52
2022-10-13T05:27:55.598Z,7.65
2022-10-13T05:29:03.011Z,8.40
2022-10-13T05:30:07.643Z,11.90
2022-10-13T05:31:19.396Z,12.80
2022-10-13T05:32:23.389Z,10.23
2022-10-13T05:33:26.876Z,8.93
2022-10-13T05:34:31.045Z,10.98
2022-10-13T05:35:34.920Z,10.50
2022-10-13T05:36:39.019Z,8.27
2022-10-13T05:37:42.688Z,10.20
2022-10-13T05:38:50.654Z,8.88
2022-10-13T05:39:54.526Z,13.80
2022-10-13T05:41:07.690Z,8.40
2022-10-13T05:42:12.057Z,9.00
2022-10-13T05:43:15.816Z,10.43
2022-10-13T05:44:19.837Z,10.25
2022-10-13T05:45:24.739Z,10.20
2022-10-13T05:46:28.797Z,9.73
2022-10-13T05:47:32.697Z,12.13
2022-10-13T05:48:38.007Z,12.95
2022-10-13T05:49:41.883Z,12.40
2022-10-13T05:50:45.869Z,13.85
2022-10-13T05:52:00.222Z,12.23
2022-10-13T05:53:03.951Z,7.53
2022-10-13T05:54:27.207Z,8.30
2022-10-13T05:55:31.005Z,10.23
2022-10-13T05:56:42.986Z,13.23
2022-10-13T05:57:53.070Z,12.40
2022-10-13T05:59:04.104Z,8.88
2022-10-13T06:00:15.981Z,8.07
2022-10-13T06:01:26.671Z,10.43
2022-10-13T06:02:40.620Z,12.40
2022-10-13T06:03:46.865Z,11.52
2022-10-13T06:04:56.046Z,7.88
2022-10-13T06:06:00.295Z,10.30
2022-10-13T06:07:04.302Z,10.50
2022-10-13T06:08:09.527Z,10.10
2022-10-13T06:09:13.611Z,7.15
2022-10-13T06:10:17.984Z,10.63
2022-10-13T06:11:21.692Z,7.90
2022-10-13T06:12:26.156Z,8.95
2022-10-13T06:13:29.622Z,13.52
2022-10-13T06:14:33.617Z,13.55
2022-10-13T06:15:37.806Z,8.00
2022-10-13T06:16:41.578Z,11.43
2022-10-13T06:17:45.286Z,6.90
2022-10-13T06:18:48.876Z,8.75
2022-10-13T06:19:52.774Z,10.57
2022-10-13T06:20:56.698Z,10.32
2022-10-13T06:22:03.599Z,8.93
2022-10-13T06:23:07.651Z,12.90
2022-10-13T06:24:11.508Z,10.90
2022-10-13T06:25:15.447Z,9.93
2022-10-13T06:26:18.954Z,18.25
2022-10-13T06:27:22.415Z,18.05
2022-10-13T06:28:27.600Z,9.55
2022-10-13T06:29:32.967Z,8.68
2022-10-13T06:30:38.414Z,10.32
2022-10-13T06:31:41.981Z,11.45
2022-10-13T06:32:45.441Z,10.60
2022-10-13T06:33:49.536Z,20.42
2022-10-13T06:34:53.015Z,7.55
2022-10-13T06:35:56.945Z,10.52
2022-10-13T06:37:00.815Z,10.15
2022-10-13T06:38:04.823Z,16.05
2022-10-13T06:39:09.666Z,13.68
2022-10-13T06:40:13.509Z,13.68
2022-10-13T06:41:18.263Z,28.17
2022-10-13T06:42:23.271Z,14.60
2022-10-13T06:43:33.355Z,16.88
2022-10-13T06:44:42.860Z,12.85
2022-10-13T06:45:46.509Z,14.93
2022-10-13T06:46:50.893Z,14.20
2022-10-13T06:47:56.338Z,9.55
2022-10-13T06:49:00.413Z,12.60
2022-10-13T06:50:04.590Z,7.93
2022-10-13T06:51:11.500Z,20.80
2022-10-13T06:52:15.961Z,14.27
2022-10-13T06:53:19.665Z,9.57
2022-10-13T06:54:23.275Z,8.35
2022-10-13T06:55:27.008Z,10.88
2022-10-13T06:56:31.098Z,11.45
2022-10-13T06:57:35.337Z,14.00
2022-10-13T06:58:39.229Z,16.67
2022-10-13T06:59:44.418Z,12.60
2022-10-13T07:00:48.130Z,11.93
2022-10-13T07:01:52.213Z,16.52
2022-10-13T07:02:56.727Z,12.15
2022-10-13T07:04:00.547Z,11.25
2022-10-13T07:05:04.976Z,16.75
2022-10-13T07:06:09.481Z,17.23
2022-10-13T07:07:14.287Z,14.40
2022-10-13T07:08:18.278Z,21.27
2022-10-13T07:09:22.073Z,14.00
2022-10-13T07:10:26.070Z,14.10
2022-10-13T07:11:30.119Z,10.95
2022-10-13T07:12:34.279Z,20.80
2022-10-13T07:13:41.037Z,18.60
2022-10-13T07:14:48.012Z,38.13
2022-10-13T07:15:51.891Z,16.13
2022-10-13T07:16:55.436Z,20.15
2022-10-13T07:17:59.454Z,19.05
2022-10-13T07:19:03.399Z,17.27
2022-10-13T07:20:08.229Z,13.73
2022-10-13T07:21:12.116Z,19.75
2022-10-13T07:22:16.319Z,10.70
2022-10-13T07:23:20.018Z,15.85
2022-10-13T07:24:24.140Z,19.02
2022-10-13T07:25:27.846Z,27.75
2022-10-13T07:26:34.068Z,17.98
2022-10-13T07:27:38.445Z,15.80
2022-10-13T07:28:44.112Z,13.55
2022-10-13T07:29:50.573Z,17.20
2022-10-13T07:30:54.176Z,34.65
2022-10-13T07:31:57.787Z,15.77
2022-10-13T07:33:01.412Z,23.23
2022-10-13T07:34:05.681Z,14.55
2022-10-13T07:35:11.279Z,9.48
2022-10-13T07:36:15.031Z,18.70
2022-10-13T07:37:19.043Z,17.30
2022-10-13T07:38:22.871Z,20.50
2022-10-13T07:39:26.555Z,12.23
2022-10-13T07:40:30.400Z,22.17
2022-10-13T07:41:34.358Z,14.55
2022-10-13T07:42:38.125Z,21.80
2022-10-13T07:43:42.831Z,23.20
2022-10-13T07:44:46.344Z,27.17
2022-10-13T07:45:50.361Z,21.35
2022-10-13T07:46:54.088Z,23.55
2022-10-13T07:47:58.285Z,15.98
2022-10-13T07:49:02.073Z,15.60
2022-10-13T07:50:06.764Z,24.63
2022-10-13T07:51:13.761Z,16.35
2022-10-13T07:52:18.438Z,17.05
2022-10-13T07:53:26.560Z,17.45
2022-10-13T07:54:34.743Z,23.15
2022-10-13T07:55:47.150Z,15.05
2022-10-13T07:56:56.068Z,15.80
2022-10-13T07:58:03.289Z,17.45
2022-10-13T07:59:08.348Z,26.65
2022-10-13T08:00:14.879Z,16.88
2022-10-13T08:01:18.961Z,27.33
2022-10-13T08:02:25.379Z,17.17
2022-10-13T08:03:29.594Z,17.95
2022-10-13T08:04:35.203Z,28.20
2022-10-13T08:05:39.366Z,16.88
2022-10-13T08:06:42.892Z,15.32
2022-10-13T08:07:47.339Z,19.58
2022-10-13T08:08:54.087Z,26.05
2022-10-13T08:09:58.103Z,19.00
2022-10-13T08:11:20.091Z,18.45
2022-10-13T08:12:26.462Z,16.10
2022-10-13T08:13:30.728Z,16.63
2022-10-13T08:14:34.965Z,22.13
2022-10-13T08:15:44.363Z,29.88
2022-10-13T08:16:52.872Z,17.92
2022-10-13T08:18:12.815Z,19.77
2022-10-13T08:19:18.238Z,14.15
2022-10-13T08:20:21.826Z,13.73
2022-10-13T08:21:53.349Z,21.02
2022-10-13T08:22:53.316Z,12.65
2022-10-13T08:23:56.954Z,20.90
2022-10-13T08:25:04.407Z,16.10
2022-10-13T08:26:26.199Z,14.38
2022-10-13T08:27:50.163Z,24.70
2022-10-13T08:29:16.487Z,18.75
2022-10-13T08:30:19.531Z,18.70
2022-10-13T08:31:23.542Z,14.27
2022-10-13T08:32:27.516Z,23.02
2022-10-13T08:33:31.885Z,16.65
2022-10-13T08:34:39.930Z,13.88
2022-10-13T08:35:43.621Z,17.67
2022-10-13T08:36:47.709Z,13.00
2022-10-13T08:37:53.284Z,15.32
2022-10-13T08:38:56.888Z,12.43
2022-10-13T08:40:00.605Z,14.48
2022-10-13T08:41:30.657Z,15.75
2022-10-13T08:42:35.066Z,11.82
2022-10-13T08:43:49.054Z,13.65
2022-10-13T08:45:36.294Z,16.00
2022-10-13T08:47:11.552Z,14.82
2022-10-13T08:48:32.859Z,15.50
2022-10-13T08:49:38.289Z,13.18
2022-10-13T08:50:49.722Z,16.48
2022-10-13T08:51:54.525Z,13.35
2022-10-13T08:53:07.385Z,12.80
2022-10-13T08:54:20.224Z,15.77
2022-10-13T08:55:41.147Z,15.88
2022-10-13T08:56:48.189Z,11.75
2022-10-13T08:57:52.389Z,16.55
2022-10-13T08:58:56.937Z,13.57
2022-10-13T09:00:00.462Z,12.13
2022-10-13T09:01:23.911Z,16.95
2022-10-13T09:02:32.471Z,17.83
2022-10-13T09:04:13.986Z,18.77
2022-10-13T09:05:53.359Z,19.52
2022-10-13T09:07:33.099Z,16.27
2022-10-13T09:09:00.284Z,17.83
2022-10-13T09:10:05.304Z,17.92
2022-10-13T09:11:12.748Z,12.75
2022-10-13T09:12:24.581Z,11.68
2022-10-13T09:13:28.239Z,17.13
2022-10-13T09:14:39.012Z,18.13
2022-10-13T09:15:50.505Z,17.52
2022-10-13T09:16:57.082Z,14.43
2022-10-13T09:18:14.077Z,21.88
2022-10-13T09:19:32.469Z,11.70
2022-10-13T09:20:37.189Z,14.90
2022-10-13T09:21:44.985Z,17.83
2022-10-13T09:23:16.357Z,11.63
2022-10-13T09:24:23.162Z,13.80
2022-10-13T09:25:26.667Z,12.65
2022-10-13T09:26:30.469Z,13.82
2022-10-13T09:27:53.361Z,12.38
2022-10-13T09:28:59.244Z,22.85
2022-10-13T09:30:37.099Z,13.38
2022-10-13T09:31:40.785Z,19.15
2022-10-13T09:32:44.752Z,12.27
2022-10-13T09:34:01.987Z,10.48
2022-10-13T09:35:22.993Z,9.77
2022-10-13T09:36:27.398Z,10.77
2022-10-13T09:37:31.307Z,20.45
2022-10-13T09:38:35.332Z,10.40
2022-10-13T09:40:25.294Z,13.43
2022-10-13T09:41:35.027Z,8.68
2022-10-13T09:42:43.940Z,7.63
2022-10-13T09:43:51.655Z,9.93
2022-10-13T09:45:24.770Z,9.18
2022-10-13T09:46:46.657Z,14.13
2022-10-13T09:47:56.215Z,8.82
2022-10-13T09:49:34.940Z,12.73
2022-10-13T09:50:39.341Z,6.63
2022-10-13T09:51:46.117Z,7.50
2022-10-13T09:52:50.885Z,7.13
2022-10-13T09:53:55.291Z,9.75
2022-10-13T09:55:01.086Z,9.35
2022-10-13T09:56:30.454Z,5.03
2022-10-13T09:57:45.173Z,10.55
2022-10-13T09:59:31.450Z,5.80
2022-10-13T10:00:39.708Z,10.57
2022-10-13T10:01:48.664Z,7.55
2022-10-13T10:03:14.200Z,8.80
2022-10-13T10:04:33.596Z,7.63
2022-10-13T10:05:57.229Z,7.20
2022-10-13T10:07:16.071Z,8.35
2022-10-13T10:09:01.437Z,4.00
2022-10-13T10:10:33.453Z,6.07
2022-10-13T10:11:44.470Z,7.00
2022-10-13T10:12:51.635Z,5.78
2022-10-13T10:14:33.968Z,8.93
2022-10-13T10:16:53.226Z,6.50
2022-10-13T10:18:31.258Z,6.25
2022-10-13T10:21:07.674Z,5.43
2022-10-13T10:22:25.490Z,6.13
2022-10-13T10:23:59.356Z,13.75
2022-10-13T10:25:47.567Z,3.67
2022-10-13T10:28:49.222Z,5.93
2022-10-13T10:30:20.414Z,4.18
2022-10-13T10:31:44.606Z,9.63
2022-10-13T10:32:58.263Z,3.92
2022-10-13T10:35:14.693Z,12.45
2022-10-13T10:36:48.490Z,9.63
2022-10-13T10:38:11.055Z,6.25
2022-10-13T10:40:01.226Z,8.63
2022-10-13T10:41:54.773Z,3.45
2022-10-13T10:43:29.635Z,6.68
2022-10-13T10:44:48.795Z,7.05
2022-10-13T10:46:00.831Z,3.92
2022-10-13T10:47:25.075Z,7.30
2022-10-13T10:48:42.174Z,3.42
2022-10-13T10:50:07.604Z,4.70
2022-10-13T10:51:17.000Z,5.28
2022-10-13T10:53:01.234Z,6.65
2022-10-13T10:54:41.384Z,7.95
2022-10-13T10:56:13.507Z,11.27
2022-10-13T10:58:07.363Z,9.35
2022-10-13T10:59:53.598Z,5.00
2022-10-13T11:01:09.129Z,5.97
2022-10-13T11:02:57.559Z,4.68
2022-10-13T11:04:46.425Z,4.85
2022-10-13T11:06:35.734Z,8.10
2022-10-13T11:07:39.101Z,5.28
2022-10-13T11:08:59.645Z,5.70
2022-10-13T11:10:35.810Z,8.80
2022-10-13T11:11:43.470Z,9.25
2022-10-13T11:13:03.162Z,5.80
2022-10-13T11:14:10.715Z,15.52
2022-10-13T11:15:45.559Z,3.20
2022-10-13T11:17:02.400Z,4.55
2022-10-13T11:19:09.708Z,3.72
2022-10-13T11:20:20.429Z,4.10
2022-10-13T11:21:26.412Z,7.00
2022-10-13T11:22:33.167Z,2.80
2022-10-13T11:23:49.992Z,6.82
2022-10-13T11:25:43.255Z,3.30
2022-10-13T11:26:54.659Z,3.85
2022-10-13T11:28:27.868Z,6.18
2022-10-13T11:29:58.216Z,2.03
2022-10-13T11:31:14.635Z,6.75
2022-10-13T11:32:40.022Z,4.60
2022-10-13T11:33:45.747Z,6.25
2022-10-13T11:35:10.703Z,4.95
2022-10-13T11:36:54.118Z,3.28
2022-10-13T11:38:07.352Z,7.80
2022-10-13T11:41:18.363Z,2.72
2022-10-13T11:43:22.454Z,6.38
2022-10-13T11:44:36.928Z,5.63
2022-10-13T11:46:22.078Z,7.07
2022-10-13T11:47:54.142Z,4.80
2022-10-13T11:49:46.258Z,3.53
2022-10-13T11:51:23.948Z,4.13
2022-10-13T11:52:55.180Z,8.60
2022-10-13T11:54:41.990Z,3.33
2022-10-13T11:55:54.491Z,4.95
2022-10-13T11:56:59.588Z,3.90
2022-10-13T11:58:31.689Z,5.80
2022-10-13T11:59:40.080Z,3.70
2022-10-13T12:01:14.412Z,7.90
2022-10-13T12:02:27.218Z,3.15
2022-10-13T12:03:35.905Z,5.68
2022-10-13T12:04:46.653Z,3.53
2022-10-13T12:06:01.912Z,3.78
2022-10-13T12:07:16.392Z,8.20
2022-10-13T12:08:22.019Z,3.92
2022-10-13T12:09:26.446Z,7.07
2022-10-13T12:10:40.236Z,4.85
2022-10-13T12:11:58.805Z,4.82
2022-10-13T12:13:10.151Z,8.63
2022-10-13T12:14:40.912Z,4.95
2022-10-13T12:15:45.079Z,3.92
2022-10-13T12:17:01.334Z,9.13
2022-10-13T12:18:31.524Z,3.35
2022-10-13T12:19:41.071Z,5.35
2022-10-13T12:21:27.904Z,7.18
2022-10-13T12:22:39.331Z,5.32
2022-10-13T12:23:44.218Z,4.60
2022-10-13T12:25:08.280Z,7.25
2022-10-13T12:26:28.786Z,5.90
2022-10-13T12:27:51.815Z,5.97
2022-10-13T12:29:02.887Z,4.60
2022-10-13T12:30:37.179Z,4.25
2022-10-13T12:31:47.235Z,8.13
2022-10-13T12:32:56.229Z,8.23
2022-10-13T12:34:05.263Z,6.20
2022-10-13T12:35:33.285Z,7.30
2022-10-13T12:36:37.368Z,7.70
2022-10-13T12:37:41.163Z,4.80
2022-10-13T12:38:53.834Z,5.93
2022-10-13T12:40:09.249Z,9.25
2022-10-13T12:41:20.048Z,5.32
2022-10-13T12:42:34.953Z,8.15
2022-10-13T12:43:39.908Z,5.50
2022-10-13T12:44:45.797Z,5.20
2022-10-13T12:45:51.365Z,4.88
2022-10-13T12:46:59.272Z,3.33
2022-10-13T12:48:07.497Z,4.10
2022-10-13T12:50:36.612Z,4.32
2022-10-13T12:51:48.352Z,6.32
2022-10-13T12:53:09.599Z,5.88
2022-10-13T12:54:29.538Z,5.50
2022-10-13T12:55:34.377Z,5.13
2022-10-13T12:56:44.797Z,3.70
2022-10-13T12:57:53.345Z,11.88
2022-10-13T12:59:04.592Z,6.15
2022-10-13T13:00:26.702Z,6.45
2022-10-13T13:01:38.298Z,5.50
2022-10-13T13:02:42.387Z,9.27
2022-10-13T13:03:46.020Z,7.93
2022-10-13T13:04:53.810Z,7.80
2022-10-13T13:06:14.352Z,5.75
2022-10-13T13:07:37.868Z,9.50
2022-10-13T13:08:43.367Z,6.38
2022-10-13T13:10:16.200Z,8.35
2022-10-13T13:11:35.915Z,6.50
2022-10-13T13:12:40.505Z,8.25
2022-10-13T13:13:44.212Z,5.82
2022-10-13T13:14:53.871Z,3.33
2022-10-13T13:16:20.829Z,5.15
2022-10-13T13:17:56.595Z,6.93
2022-10-13T13:18:57.154Z,3.92
2022-10-13T13:20:00.899Z,12.18
2022-10-13T13:21:07.476Z,3.67
2022-10-13T13:22:20.102Z,12.05
2022-10-13T13:23:24.641Z,4.07
2022-10-13T13:24:39.951Z,3.53
2022-10-13T13:25:44.044Z,3.15
2022-10-13T13:26:48.379Z,10.45
2022-10-13T13:27:53.404Z,9.35
2022-10-13T13:28:57.307Z,13.65
2022-10-13T13:30:01.632Z,7.00
2022-10-13T13:31:12.082Z,7.53
2022-10-13T13:32:20.249Z,9.88
2022-10-13T13:33:24.750Z,7.78
2022-10-13T13:34:29.661Z,6.65
2022-10-13T13:35:34.478Z,9.38
2022-10-13T13:36:38.755Z,8.65
2022-10-13T13:37:52.331Z,9.32
2022-10-13T13:38:57.593Z,6.93
2022-10-13T13:40:02.950Z,3.53
2022-10-13T13:41:06.719Z,9.32
2022-10-13T13:42:15.020Z,8.75
2022-10-13T13:43:19.536Z,3.22
2022-10-13T13:44:26.365Z,4.68
2022-10-13T13:45:30.096Z,7.65
2022-10-13T13:46:35.187Z,5.88
2022-10-13T13:47:38.917Z,4.75
2022-10-13T13:48:42.462Z,4.03
2022-10-13T13:49:47.198Z,4.78
2022-10-13T13:50:51.095Z,8.90
2022-10-13T13:51:55.711Z,6.85
2022-10-13T13:53:00.934Z,4.20
2022-10-13T13:54:16.280Z,2.88
2022-10-13T13:55:20.558Z,2.47
2022-10-13T13:56:25.219Z,4.70
2022-10-13T13:57:29.091Z,4.55
2022-10-13T13:58:32.922Z,2.80
2022-10-13T13:59:37.432Z,7.70
2022-10-13T14:00:42.020Z,4.32
2022-10-13T14:01:45.597Z,11.45
2022-10-13T14:02:50.406Z,6.03
2022-10-13T14:03:54.537Z,3.85
2022-10-13T14:04:58.578Z,2.65
2022-10-13T14:06:03.048Z,7.13
2022-10-13T14:07:06.788Z,4.45
2022-10-13T14:08:13.544Z,7.85
2022-10-13T14:09:17.135Z,3.47
2022-10-13T14:10:20.898Z,2.58
2022-10-13T14:11:25.407Z,5.00
2022-10-13T14:12:37.634Z,3.03
2022-10-13T14:13:42.693Z,5.88
2022-10-13T14:14:50.154Z,2.45
2022-10-13T14:16:04.569Z,4.45
2022-10-13T14:17:09.816Z,2.33
2022-10-13T14:18:13.707Z,6.43
2022-10-13T14:19:37.664Z,2.38
2022-10-13T14:20:42.893Z,2.40
2022-10-13T14:21:50.764Z,4.75
2022-10-13T14:22:57.977Z,4.82
2022-10-13T14:24:02.350Z,3.33
2022-10-13T14:25:07.493Z,4.70
2022-10-13T14:26:11.578Z,2.15
2022-10-13T14:27:15.066Z,3.70
2022-10-13T14:28:19.121Z,4.72
2022-10-13T14:29:25.192Z,5.20
2022-10-13T14:30:28.681Z,5.85
2022-10-13T14:31:33.603Z,6.60
2022-10-13T14:32:40.855Z,9.88
2022-10-13T14:34:02.551Z,4.57
2022-10-13T14:35:07.183Z,5.82
2022-10-13T14:36:16.476Z,7.15
2022-10-13T14:37:23.184Z,5.25
2022-10-13T14:38:29.836Z,3.60
2022-10-13T14:39:35.877Z,4.50
2022-10-13T14:40:45.144Z,3.35
2022-10-13T14:41:49.299Z,3.10
2022-10-13T14:42:53.241Z,3.53
2022-10-13T14:43:57.635Z,2.42
2022-10-13T14:45:04.913Z,2.80
2022-10-13T14:46:13.210Z,9.82
2022-10-13T14:47:21.841Z,2.70
2022-10-13T14:48:28.005Z,3.28
2022-10-13T14:49:31.623Z,6.85
2022-10-13T14:50:37.925Z,9.57
2022-10-13T14:51:41.601Z,3.63
2022-10-13T14:53:00.433Z,5.68
2022-10-13T14:54:08.556Z,3.05
2022-10-13T14:55:17.769Z,3.33
2022-10-13T14:56:30.265Z,8.10
2022-10-13T14:57:33.819Z,4.70
2022-10-13T14:58:37.750Z,4.53
2022-10-13T14:59:45.326Z,2.65
2022-10-13T15:00:54.841Z,2.90
2022-10-13T15:01:59.567Z,4.40
2022-10-13T15:03:06.523Z,5.05
2022-10-13T15:04:12.947Z,2.75
2022-10-13T15:05:23.578Z,4.38
2022-10-13T15:06:27.912Z,4.20
2022-10-13T15:07:40.233Z,3.75
2022-10-13T15:08:45.529Z,2.50
2022-10-13T15:10:11.245Z,4.45
2022-10-13T15:11:18.552Z,5.93
2022-10-13T15:12:28.614Z,4.22
2022-10-13T15:13:35.385Z,2.90
2022-10-13T15:14:43.047Z,4.63
2022-10-13T15:15:48.499Z,3.85
2022-10-13T15:16:53.840Z,4.63
2022-10-13T15:17:58.686Z,2.40
2022-10-13T15:19:04.071Z,2.72
2022-10-13T15:20:12.916Z,2.33
2022-10-13T15:21:30.788Z,4.30
2022-10-13T15:22:37.352Z,3.00
2022-10-13T15:23:42.724Z,6.95
2022-10-13T15:24:49.436Z,1.50
2022-10-13T15:26:01.188Z,5.60
2022-10-13T15:27:05.014Z,1.92
2022-10-13T15:28:08.594Z,6.43
2022-10-13T15:29:12.204Z,3.83
2022-10-13T15:30:15.970Z,3.42
2022-10-13T15:31:22.031Z,2.95
2022-10-13T15:32:25.928Z,4.82
2022-10-13T15:33:30.676Z,4.43